sensor_id;sensor_type;location;lat;lon;timestamp;P1;durP1;ratioP1;P2;durP2;ratioP2
48363;SDS011;34170;54.364;18.582;2023-03-01T00:01:40;11.00;;;3.97;;
48363;SDS011;34170;54.364;18.582;2023-03-01T00:04:08;11.93;;;4.43;;
48363;SDS011;34170;54.364;18.582;2023-03-01T00:06:35;12.18;;;4.28;;
48363;SDS011;34170;54.364;18.582;2023-03-01T00:09:03;9.85;;;3.47;;
48363;SDS011;34170;54.364;18.582;2023-03-01T00:11:31;7.63;;;3.25;;
48363;SDS011;34170;54.364;18.582;2023-03-01T00:14:01;11.50;;;4.32;;
48363;SDS011;34170;54.364;18.582;2023-03-01T00:16:33;10.18;;;4.03;;
48363;SDS011;34170;54.364;18.582;2023-03-01T00:19:03;9.50;;;3.90;;
48363;SDS011;34170;54.364;18.582;2023-03-01T00:21:30;12.05;;;4.47;;
48363;SDS011;34170;54.364;18.582;2023-03-01T00:23:58;9.27;;;3.42;;
48363;SDS011;34170;54.364;18.582;2023-03-01T00:26:25;11.68;;;4.10;;
48363;SDS011;34170;54.364;18.582;2023-03-01T00:28:54;12.70;;;4.35;;
48363;SDS011;34170;54.364;18.582;2023-03-01T00:31:25;8.48;;;4.00;;
48363;SDS011;34170;54.364;18.582;2023-03-01T00:33:55;11.98;;;4.15;;
48363;SDS011;34170;54.364;18.582;2023-03-01T00:36:25;10.88;;;3.85;;
48363;SDS011;34170;54.364;18.582;2023-03-01T00:38:56;16.13;;;4.30;;
48363;SDS011;34170;54.364;18.582;2023-03-01T00:41:24;13.48;;;5.00;;
48363;SDS011;34170;54.364;18.582;2023-03-01T00:43:54;11.38;;;4.10;;
48363;SDS011;34170;54.364;18.582;2023-03-01T00:46:23;8.27;;;3.28;;
48363;SDS011;34170;54.364;18.582;2023-03-01T00:48:53;11.40;;;4.60;;
48363;SDS011;34170;54.364;18.582;2023-03-01T00:51:24;10.23;;;4.18;;
48363;SDS011;34170;54.364;18.582;2023-03-01T00:54:01;14.35;;;4.55;;
48363;SDS011;34170;54.364;18.582;2023-03-01T00:56:29;14.80;;;4.43;;
48363;SDS011;34170;54.364;18.582;2023-03-01T00:58:58;13.88;;;4.85;;
48363;SDS011;34170;54.364;18.582;2023-03-01T01:01:27;10.48;;;4.85;;
48363;SDS011;34170;54.364;18.582;2023-03-01T01:04:00;12.32;;;4.88;;
48363;SDS011;34170;54.364;18.582;2023-03-01T01:06:39;11.77;;;5.28;;
48363;SDS011;34170;54.364;18.582;2023-03-01T01:09:13;11.00;;;4.35;;
48363;SDS011;34170;54.364;18.582;2023-03-01T01:11:45;10.23;;;4.53;;
48363;SDS011;34170;54.364;18.582;2023-03-01T01:14:15;11.68;;;5.40;;
48363;SDS011;34170;54.364;18.582;2023-03-01T01:16:43;15.52;;;5.10;;
48363;SDS011;34170;54.364;18.582;2023-03-01T01:19:11;11.00;;;4.78;;
48363;SDS011;34170;54.364;18.582;2023-03-01T01:21:39;13.38;;;6.85;;
48363;SDS011;34170;54.364;18.582;2023-03-01T01:24:07;15.40;;;5.68;;
48363;SDS011;34170;54.364;18.582;2023-03-01T01:26:34;14.07;;;5.22;;
48363;SDS011;34170;54.364;18.582;2023-03-01T01:29:02;15.45;;;6.13;;
48363;SDS011;34170;54.364;18.582;2023-03-01T01:31:32;17.45;;;5.65;;
48363;SDS011;34170;54.364;18.582;2023-03-01T01:34:01;13.60;;;5.72;;
48363;SDS011;34170;54.364;18.582;2023-03-01T01:36:33;14.70;;;6.25;;
48363;SDS011;34170;54.364;18.582;2023-03-01T01:39:01;13.55;;;4.75;;
48363;SDS011;34170;54.364;18.582;2023-03-01T01:41:29;13.95;;;5.45;;
48363;SDS011;34170;54.364;18.582;2023-03-01T01:46:52;11.85;;;5.60;;
48363;SDS011;34170;54.364;18.582;2023-03-01T01:51:56;10.57;;;5.32;;
48363;SDS011;34170;54.364;18.582;2023-03-01T01:54:38;15.65;;;6.45;;
48363;SDS011;34170;54.364;18.582;2023-03-01T01:57:11;15.57;;;6.50;;
48363;SDS011;34170;54.364;18.582;2023-03-01T01:59:43;12.15;;;6.30;;
48363;SDS011;34170;54.364;18.582;2023-03-01T02:02:16;16.27;;;5.90;;
48363;SDS011;34170;54.364;18.582;2023-03-01T02:04:43;15.00;;;5.97;;
48363;SDS011;34170;54.364;18.582;2023-03-01T02:07:15;18.75;;;6.50;;
48363;SDS011;34170;54.364;18.582;2023-03-01T02:09:46;12.90;;;6.72;;
48363;SDS011;34170;54.364;18.582;2023-03-01T02:12:15;16.33;;;7.60;;
48363;SDS011;34170;54.364;18.582;2023-03-01T02:14:46;22.02;;;7.50;;
48363;SDS011;34170;54.364;18.582;2023-03-01T02:17:14;20.77;;;8.57;;
48363;SDS011;34170;54.364;18.582;2023-03-01T02:19:49;21.75;;;8.73;;
48363;SDS011;34170;54.364;18.582;2023-03-01T02:22:43;17.92;;;7.80;;
48363;SDS011;34170;54.364;18.582;2023-03-01T02:30:43;21.58;;;8.90;;
48363;SDS011;34170;54.364;18.582;2023-03-01T02:33:33;22.63;;;9.52;;
48363;SDS011;34170;54.364;18.582;2023-03-01T02:36:03;24.35;;;9.18;;
48363;SDS011;34170;54.364;18.582;2023-03-01T02:38:35;23.52;;;9.52;;
48363;SDS011;34170;54.364;18.582;2023-03-01T02:41:03;21.23;;;10.70;;
48363;SDS011;34170;54.364;18.582;2023-03-01T02:43:33;24.70;;;10.68;;
48363;SDS011;34170;54.364;18.582;2023-03-01T02:46:24;26.58;;;10.98;;
48363;SDS011;34170;54.364;18.582;2023-03-01T02:48:53;24.58;;;11.30;;
48363;SDS011;34170;54.364;18.582;2023-03-01T02:53:56;24.50;;;9.55;;
48363;SDS011;34170;54.364;18.582;2023-03-01T02:56:26;32.38;;;12.18;;
48363;SDS011;34170;54.364;18.582;2023-03-01T02:58:56;26.00;;;11.15;;
48363;SDS011;34170;54.364;18.582;2023-03-01T03:01:29;26.67;;;10.93;;
48363;SDS011;34170;54.364;18.582;2023-03-01T03:04:09;28.90;;;10.65;;
48363;SDS011;34170;54.364;18.582;2023-03-01T03:06:38;31.50;;;11.68;;
48363;SDS011;34170;54.364;18.582;2023-03-01T03:09:06;30.50;;;11.93;;
48363;SDS011;34170;54.364;18.582;2023-03-01T03:11:35;31.52;;;13.23;;
48363;SDS011;34170;54.364;18.582;2023-03-01T03:14:03;29.90;;;11.80;;
48363;SDS011;34170;54.364;18.582;2023-03-01T03:16:31;32.40;;;12.50;;
48363;SDS011;34170;54.364;18.582;2023-03-01T03:18:59;30.83;;;12.15;;
48363;SDS011;34170;54.364;18.582;2023-03-01T03:21:33;28.40;;;10.63;;
48363;SDS011;34170;54.364;18.582;2023-03-01T03:24:01;29.90;;;13.48;;
48363;SDS011;34170;54.364;18.582;2023-03-01T03:26:29;31.38;;;11.77;;
48363;SDS011;34170;54.364;18.582;2023-03-01T03:28:57;31.10;;;13.88;;
48363;SDS011;34170;54.364;18.582;2023-03-01T03:31:25;30.25;;;13.20;;
48363;SDS011;34170;54.364;18.582;2023-03-01T03:33:53;50.35;;;24.77;;
48363;SDS011;34170;54.364;18.582;2023-03-01T03:36:22;37.47;;;13.55;;
48363;SDS011;34170;54.364;18.582;2023-03-01T03:38:51;32.35;;;13.13;;
48363;SDS011;34170;54.364;18.582;2023-03-01T03:41:18;34.03;;;12.77;;
48363;SDS011;34170;54.364;18.582;2023-03-01T03:43:45;32.70;;;13.55;;
48363;SDS011;34170;54.364;18.582;2023-03-01T03:46:13;34.67;;;12.65;;
48363;SDS011;34170;54.364;18.582;2023-03-01T03:48:42;40.95;;;14.40;;
48363;SDS011;34170;54.364;18.582;2023-03-01T03:51:15;34.03;;;13.07;;
48363;SDS011;34170;54.364;18.582;2023-03-01T03:53:44;38.53;;;13.52;;
48363;SDS011;34170;54.364;18.582;2023-03-01T03:56:12;31.40;;;13.25;;
48363;SDS011;34170;54.364;18.582;2023-03-01T03:58:39;35.17;;;13.27;;
48363;SDS011;34170;54.364;18.582;2023-03-01T04:01:07;38.08;;;15.05;;
48363;SDS011;34170;54.364;18.582;2023-03-01T04:03:34;35.15;;;13.93;;
48363;SDS011;34170;54.364;18.582;2023-03-01T04:06:02;35.22;;;13.18;;
48363;SDS011;34170;54.364;18.582;2023-03-01T04:08:31;36.97;;;12.98;;
48363;SDS011;34170;54.364;18.582;2023-03-01T04:11:03;32.22;;;12.90;;
48363;SDS011;34170;54.364;18.582;2023-03-01T04:13:51;33.35;;;12.25;;
48363;SDS011;34170;54.364;18.582;2023-03-01T04:16:21;32.45;;;11.38;;
48363;SDS011;34170;54.364;18.582;2023-03-01T04:18:48;34.85;;;13.23;;
48363;SDS011;34170;54.364;18.582;2023-03-01T04:21:16;31.27;;;13.10;;
48363;SDS011;34170;54.364;18.582;2023-03-01T04:23:43;35.55;;;12.73;;
48363;SDS011;34170;54.364;18.582;2023-03-01T04:26:11;40.08;;;13.52;;
48363;SDS011;34170;54.364;18.582;2023-03-01T04:28:40;31.40;;;11.95;;
48363;SDS011;34170;54.364;18.582;2023-03-01T04:31:13;30.75;;;12.85;;
48363;SDS011;34170;54.364;18.582;2023-03-01T04:36:29;27.77;;;11.85;;
48363;SDS011;34170;54.364;18.582;2023-03-01T04:38:58;34.35;;;13.32;;
48363;SDS011;34170;54.364;18.582;2023-03-01T04:41:25;31.30;;;12.95;;
48363;SDS011;34170;54.364;18.582;2023-03-01T04:43:53;37.25;;;13.90;;
48363;SDS011;34170;54.364;18.582;2023-03-01T04:46:21;38.22;;;13.65;;
48363;SDS011;34170;54.364;18.582;2023-03-01T04:48:49;34.05;;;14.25;;
48363;SDS011;34170;54.364;18.582;2023-03-01T04:51:16;36.20;;;14.27;;
48363;SDS011;34170;54.364;18.582;2023-03-01T04:53:45;31.20;;;13.70;;
48363;SDS011;34170;54.364;18.582;2023-03-01T04:56:13;32.75;;;13.32;;
48363;SDS011;34170;54.364;18.582;2023-03-01T04:58:41;37.40;;;12.63;;
48363;SDS011;34170;54.364;18.582;2023-03-01T05:01:10;38.50;;;12.85;;
48363;SDS011;34170;54.364;18.582;2023-03-01T05:03:49;34.70;;;12.40;;
48363;SDS011;34170;54.364;18.582;2023-03-01T05:06:19;35.70;;;12.88;;
48363;SDS011;34170;54.364;18.582;2023-03-01T05:08:47;29.25;;;11.02;;
48363;SDS011;34170;54.364;18.582;2023-03-01T05:11:15;26.70;;;10.55;;
48363;SDS011;34170;54.364;18.582;2023-03-01T05:13:42;32.28;;;12.18;;
48363;SDS011;34170;54.364;18.582;2023-03-01T05:16:10;32.88;;;11.95;;
48363;SDS011;34170;54.364;18.582;2023-03-01T05:18:39;25.98;;;10.95;;
48363;SDS011;34170;54.364;18.582;2023-03-01T05:21:08;26.27;;;10.18;;
48363;SDS011;34170;54.364;18.582;2023-03-01T05:23:38;32.43;;;12.27;;
48363;SDS011;34170;54.364;18.582;2023-03-01T05:26:06;31.25;;;11.63;;
48363;SDS011;34170;54.364;18.582;2023-03-01T05:28:51;28.98;;;11.77;;
48363;SDS011;34170;54.364;18.582;2023-03-01T05:31:19;29.65;;;11.73;;
48363;SDS011;34170;54.364;18.582;2023-03-01T05:33:46;29.58;;;12.07;;
48363;SDS011;34170;54.364;18.582;2023-03-01T05:36:14;34.33;;;13.73;;
48363;SDS011;34170;54.364;18.582;2023-03-01T05:38:41;32.10;;;12.23;;
48363;SDS011;34170;54.364;18.582;2023-03-01T05:41:13;33.78;;;13.00;;
48363;SDS011;34170;54.364;18.582;2023-03-01T05:43:42;27.27;;;11.43;;
48363;SDS011;34170;54.364;18.582;2023-03-01T05:46:12;25.27;;;10.82;;
48363;SDS011;34170;54.364;18.582;2023-03-01T05:48:42;28.05;;;12.65;;
48363;SDS011;34170;54.364;18.582;2023-03-01T05:51:10;26.85;;;11.20;;
48363;SDS011;34170;54.364;18.582;2023-03-01T05:53:38;26.92;;;11.15;;
48363;SDS011;34170;54.364;18.582;2023-03-01T05:56:06;30.83;;;12.82;;
48363;SDS011;34170;54.364;18.582;2023-03-01T05:58:33;35.20;;;12.73;;
48363;SDS011;34170;54.364;18.582;2023-03-01T06:01:01;31.45;;;12.80;;
48363;SDS011;34170;54.364;18.582;2023-03-01T06:03:29;31.08;;;12.82;;
48363;SDS011;34170;54.364;18.582;2023-03-01T06:05:56;32.70;;;12.18;;
48363;SDS011;34170;54.364;18.582;2023-03-01T06:08:25;28.48;;;11.05;;
48363;SDS011;34170;54.364;18.582;2023-03-01T06:10:54;23.67;;;10.35;;
48363;SDS011;34170;54.364;18.582;2023-03-01T06:13:22;25.10;;;10.45;;
48363;SDS011;34170;54.364;18.582;2023-03-01T06:15:50;25.13;;;10.82;;
48363;SDS011;34170;54.364;18.582;2023-03-01T06:18:18;27.73;;;10.68;;
48363;SDS011;34170;54.364;18.582;2023-03-01T06:20:52;22.95;;;10.43;;
48363;SDS011;34170;54.364;18.582;2023-03-01T06:23:20;24.00;;;10.10;;
48363;SDS011;34170;54.364;18.582;2023-03-01T06:25:49;23.30;;;8.90;;
48363;SDS011;34170;54.364;18.582;2023-03-01T06:28:16;24.65;;;9.90;;
48363;SDS011;34170;54.364;18.582;2023-03-01T06:30:44;23.50;;;9.23;;
48363;SDS011;34170;54.364;18.582;2023-03-01T06:33:11;23.13;;;9.48;;
48363;SDS011;34170;54.364;18.582;2023-03-01T06:35:39;19.48;;;8.70;;
48363;SDS011;34170;54.364;18.582;2023-03-01T06:38:06;23.35;;;9.77;;
48363;SDS011;34170;54.364;18.582;2023-03-01T06:40:34;21.50;;;9.25;;
48363;SDS011;34170;54.364;18.582;2023-03-01T06:43:02;22.23;;;9.68;;
48363;SDS011;34170;54.364;18.582;2023-03-01T06:45:29;25.15;;;10.68;;
48363;SDS011;34170;54.364;18.582;2023-03-01T06:48:06;23.05;;;9.90;;
48363;SDS011;34170;54.364;18.582;2023-03-01T06:50:35;26.65;;;10.38;;
48363;SDS011;34170;54.364;18.582;2023-03-01T06:53:02;20.40;;;9.25;;
48363;SDS011;34170;54.364;18.582;2023-03-01T06:55:31;19.25;;;8.82;;
48363;SDS011;34170;54.364;18.582;2023-03-01T06:57:59;20.02;;;8.55;;
48363;SDS011;34170;54.364;18.582;2023-03-01T07:00:28;20.08;;;8.70;;
48363;SDS011;34170;54.364;18.582;2023-03-01T07:02:58;17.05;;;7.95;;
48363;SDS011;34170;54.364;18.582;2023-03-01T07:05:27;15.27;;;6.95;;
48363;SDS011;34170;54.364;18.582;2023-03-01T07:07:55;15.63;;;6.95;;
48363;SDS011;34170;54.364;18.582;2023-03-01T07:10:23;12.93;;;6.00;;
48363;SDS011;34170;54.364;18.582;2023-03-01T07:12:53;15.13;;;7.43;;
48363;SDS011;34170;54.364;18.582;2023-03-01T07:15:22;11.85;;;6.03;;
48363;SDS011;34170;54.364;18.582;2023-03-01T07:17:49;14.25;;;6.85;;
48363;SDS011;34170;54.364;18.582;2023-03-01T07:20:18;14.05;;;6.78;;
48363;SDS011;34170;54.364;18.582;2023-03-01T07:22:49;13.88;;;6.60;;
48363;SDS011;34170;54.364;18.582;2023-03-01T07:25:17;13.38;;;6.57;;
48363;SDS011;34170;54.364;18.582;2023-03-01T07:27:48;15.25;;;7.28;;
48363;SDS011;34170;54.364;18.582;2023-03-01T07:30:16;13.00;;;6.70;;
48363;SDS011;34170;54.364;18.582;2023-03-01T07:32:44;14.63;;;7.28;;
48363;SDS011;34170;54.364;18.582;2023-03-01T07:35:12;19.25;;;7.65;;
48363;SDS011;34170;54.364;18.582;2023-03-01T07:37:41;16.02;;;7.20;;
48363;SDS011;34170;54.364;18.582;2023-03-01T07:40:09;15.88;;;7.40;;
48363;SDS011;34170;54.364;18.582;2023-03-01T07:42:37;13.80;;;7.40;;
48363;SDS011;34170;54.364;18.582;2023-03-01T07:45:05;12.65;;;6.40;;
48363;SDS011;34170;54.364;18.582;2023-03-01T07:47:33;14.50;;;7.68;;
48363;SDS011;34170;54.364;18.582;2023-03-01T07:50:01;12.73;;;6.35;;
48363;SDS011;34170;54.364;18.582;2023-03-01T07:52:29;14.10;;;7.53;;
48363;SDS011;34170;54.364;18.582;2023-03-01T07:54:57;14.55;;;7.05;;
48363;SDS011;34170;54.364;18.582;2023-03-01T07:57:25;13.77;;;7.13;;
48363;SDS011;34170;54.364;18.582;2023-03-01T07:59:52;15.00;;;7.07;;
48363;SDS011;34170;54.364;18.582;2023-03-01T08:02:20;13.32;;;7.35;;
48363;SDS011;34170;54.364;18.582;2023-03-01T08:04:47;14.55;;;7.80;;
48363;SDS011;34170;54.364;18.582;2023-03-01T08:07:14;15.80;;;8.32;;
48363;SDS011;34170;54.364;18.582;2023-03-01T08:09:42;16.25;;;8.60;;
48363;SDS011;34170;54.364;18.582;2023-03-01T08:12:10;17.00;;;8.02;;
48363;SDS011;34170;54.364;18.582;2023-03-01T08:14:37;15.98;;;8.45;;
48363;SDS011;34170;54.364;18.582;2023-03-01T08:17:05;16.45;;;8.07;;
48363;SDS011;34170;54.364;18.582;2023-03-01T08:19:32;15.45;;;8.23;;
48363;SDS011;34170;54.364;18.582;2023-03-01T08:22:01;16.63;;;8.90;;
48363;SDS011;34170;54.364;18.582;2023-03-01T08:24:29;12.98;;;7.82;;
48363;SDS011;34170;54.364;18.582;2023-03-01T08:26:56;15.65;;;8.40;;
48363;SDS011;34170;54.364;18.582;2023-03-01T08:29:24;16.30;;;8.13;;
48363;SDS011;34170;54.364;18.582;2023-03-01T08:31:51;19.45;;;9.10;;
48363;SDS011;34170;54.364;18.582;2023-03-01T08:34:19;16.65;;;8.25;;
48363;SDS011;34170;54.364;18.582;2023-03-01T08:36:46;12.70;;;7.28;;
48363;SDS011;34170;54.364;18.582;2023-03-01T08:39:15;14.20;;;7.82;;
48363;SDS011;34170;54.364;18.582;2023-03-01T08:41:43;12.68;;;7.40;;
48363;SDS011;34170;54.364;18.582;2023-03-01T08:44:14;12.57;;;7.20;;
48363;SDS011;34170;54.364;18.582;2023-03-01T08:46:46;13.68;;;7.18;;
48363;SDS011;34170;54.364;18.582;2023-03-01T08:49:17;14.85;;;7.63;;
48363;SDS011;34170;54.364;18.582;2023-03-01T08:51:46;14.70;;;7.90;;
48363;SDS011;34170;54.364;18.582;2023-03-01T08:54:16;14.00;;;8.05;;
48363;SDS011;34170;54.364;18.582;2023-03-01T08:56:45;13.33;;;7.13;;
48363;SDS011;34170;54.364;18.582;2023-03-01T08:59:14;14.65;;;8.73;;
48363;SDS011;34170;54.364;18.582;2023-03-01T09:01:42;14.60;;;8.85;;
48363;SDS011;34170;54.364;18.582;2023-03-01T09:04:11;15.90;;;9.25;;
48363;SDS011;34170;54.364;18.582;2023-03-01T09:06:38;15.27;;;8.60;;
48363;SDS011;34170;54.364;18.582;2023-03-01T09:09:06;15.57;;;8.57;;
48363;SDS011;34170;54.364;18.582;2023-03-01T09:11:39;15.18;;;8.43;;
48363;SDS011;34170;54.364;18.582;2023-03-01T09:14:06;12.77;;;7.15;;
48363;SDS011;34170;54.364;18.582;2023-03-01T09:16:34;14.18;;;8.57;;
48363;SDS011;34170;54.364;18.582;2023-03-01T09:19:03;18.38;;;7.85;;
48363;SDS011;34170;54.364;18.582;2023-03-01T09:21:31;16.60;;;8.73;;
48363;SDS011;34170;54.364;18.582;2023-03-01T09:24:11;15.05;;;8.95;;
48363;SDS011;34170;54.364;18.582;2023-03-01T09:26:41;17.67;;;9.27;;
48363;SDS011;34170;54.364;18.582;2023-03-01T09:29:09;20.13;;;9.30;;
48363;SDS011;34170;54.364;18.582;2023-03-01T09:31:36;15.40;;;8.75;;
48363;SDS011;34170;54.364;18.582;2023-03-01T09:34:04;15.57;;;8.75;;
48363;SDS011;34170;54.364;18.582;2023-03-01T09:36:32;14.38;;;7.85;;
48363;SDS011;34170;54.364;18.582;2023-03-01T09:39:00;14.30;;;8.18;;
48363;SDS011;34170;54.364;18.582;2023-03-01T09:41:38;15.23;;;8.20;;
48363;SDS011;34170;54.364;18.582;2023-03-01T09:47:26;14.40;;;8.57;;
48363;SDS011;34170;54.364;18.582;2023-03-01T09:50:18;12.70;;;7.78;;
48363;SDS011;34170;54.364;18.582;2023-03-01T09:53:05;13.65;;;8.10;;
48363;SDS011;34170;54.364;18.582;2023-03-01T10:06:33;12.15;;;7.07;;
48363;SDS011;34170;54.364;18.582;2023-03-01T10:09:10;15.13;;;8.82;;
48363;SDS011;34170;54.364;18.582;2023-03-01T10:11:48;11.45;;;6.88;;
48363;SDS011;34170;54.364;18.582;2023-03-01T10:17:39;12.50;;;6.75;;
48363;SDS011;34170;54.364;18.582;2023-03-01T10:20:19;11.80;;;6.68;;
48363;SDS011;34170;54.364;18.582;2023-03-01T10:22:52;9.90;;;6.30;;
48363;SDS011;34170;54.364;18.582;2023-03-01T10:31:04;13.63;;;8.27;;
48363;SDS011;34170;54.364;18.582;2023-03-01T10:33:38;10.73;;;7.38;;
48363;SDS011;34170;54.364;18.582;2023-03-01T10:36:09;13.63;;;7.67;;
48363;SDS011;34170;54.364;18.582;2023-03-01T10:38:47;13.63;;;7.32;;
48363;SDS011;34170;54.364;18.582;2023-03-01T10:41:19;10.43;;;6.53;;
48363;SDS011;34170;54.364;18.582;2023-03-01T10:46:25;10.80;;;6.55;;
48363;SDS011;34170;54.364;18.582;2023-03-01T10:49:13;11.00;;;7.07;;
48363;SDS011;34170;54.364;18.582;2023-03-01T10:51:47;12.82;;;7.13;;
48363;SDS011;34170;54.364;18.582;2023-03-01T10:54:23;12.13;;;6.70;;
48363;SDS011;34170;54.364;18.582;2023-03-01T10:56:55;14.05;;;7.60;;
48363;SDS011;34170;54.364;18.582;2023-03-01T11:05:34;12.30;;;7.20;;
48363;SDS011;34170;54.364;18.582;2023-03-01T11:07:54;13.18;;;7.47;;
48363;SDS011;34170;54.364;18.582;2023-03-01T11:10:27;14.13;;;7.50;;
48363;SDS011;34170;54.364;18.582;2023-03-01T11:13:16;13.93;;;8.15;;
48363;SDS011;34170;54.364;18.582;2023-03-01T11:16:09;13.00;;;7.60;;
48363;SDS011;34170;54.364;18.582;2023-03-01T11:18:36;14.00;;;8.45;;
48363;SDS011;34170;54.364;18.582;2023-03-01T11:21:15;14.43;;;8.35;;
48363;SDS011;34170;54.364;18.582;2023-03-01T11:23:43;18.58;;;9.45;;
48363;SDS011;34170;54.364;18.582;2023-03-01T11:26:14;15.18;;;8.63;;
48363;SDS011;34170;54.364;18.582;2023-03-01T11:28:44;16.95;;;9.32;;
48363;SDS011;34170;54.364;18.582;2023-03-01T11:31:19;17.02;;;9.25;;
48363;SDS011;34170;54.364;18.582;2023-03-01T11:36:52;15.95;;;9.02;;
48363;SDS011;34170;54.364;18.582;2023-03-01T11:39:34;20.30;;;10.32;;
48363;SDS011;34170;54.364;18.582;2023-03-01T11:42:13;17.42;;;9.88;;
48363;SDS011;34170;54.364;18.582;2023-03-01T11:44:46;19.48;;;10.23;;
48363;SDS011;34170;54.364;18.582;2023-03-01T12:06:57;21.83;;;11.32;;
48363;SDS011;34170;54.364;18.582;2023-03-01T12:14:44;22.45;;;11.20;;
48363;SDS011;34170;54.364;18.582;2023-03-01T12:28:49;22.35;;;10.88;;
48363;SDS011;34170;54.364;18.582;2023-03-01T12:34:28;19.38;;;10.38;;
48363;SDS011;34170;54.364;18.582;2023-03-01T12:39:57;21.10;;;10.93;;
48363;SDS011;34170;54.364;18.582;2023-03-01T12:42:51;20.50;;;10.82;;
48363;SDS011;34170;54.364;18.582;2023-03-01T12:45:56;22.30;;;10.95;;
48363;SDS011;34170;54.364;18.582;2023-03-01T12:48:49;20.27;;;10.35;;
48363;SDS011;34170;54.364;18.582;2023-03-01T12:51:23;19.40;;;10.55;;
48363;SDS011;34170;54.364;18.582;2023-03-01T12:53:54;22.70;;;11.88;;
48363;SDS011;34170;54.364;18.582;2023-03-01T12:56:25;23.33;;;11.68;;
48363;SDS011;34170;54.364;18.582;2023-03-01T13:17:50;21.35;;;10.35;;
48363;SDS011;34170;54.364;18.582;2023-03-01T13:20:26;21.45;;;10.40;;
48363;SDS011;34170;54.364;18.582;2023-03-01T13:23:04;20.50;;;10.68;;
48363;SDS011;34170;54.364;18.582;2023-03-01T13:28:38;20.67;;;10.52;;
48363;SDS011;34170;54.364;18.582;2023-03-01T13:31:10;22.30;;;10.02;;
48363;SDS011;34170;54.364;18.582;2023-03-01T13:33:58;19.83;;;10.68;;
48363;SDS011;34170;54.364;18.582;2023-03-01T13:46:57;21.35;;;10.63;;
48363;SDS011;34170;54.364;18.582;2023-03-01T13:55:04;18.42;;;9.75;;
48363;SDS011;34170;54.364;18.582;2023-03-01T13:57:41;20.25;;;10.55;;
48363;SDS011;34170;54.364;18.582;2023-03-01T14:03:23;20.17;;;10.75;;
48363;SDS011;34170;54.364;18.582;2023-03-01T14:06:01;21.20;;;11.30;;
48363;SDS011;34170;54.364;18.582;2023-03-01T14:08:42;19.53;;;10.93;;
48363;SDS011;34170;54.364;18.582;2023-03-01T14:11:27;19.23;;;10.27;;
48363;SDS011;34170;54.364;18.582;2023-03-01T14:16:56;19.65;;;10.48;;
48363;SDS011;34170;54.364;18.582;2023-03-01T14:19:35;21.35;;;10.77;;
48363;SDS011;34170;54.364;18.582;2023-03-01T14:24:50;22.92;;;11.57;;
48363;SDS011;34170;54.364;18.582;2023-03-01T14:27:22;21.00;;;11.57;;
48363;SDS011;34170;54.364;18.582;2023-03-01T14:29:54;22.40;;;11.88;;
48363;SDS011;34170;54.364;18.582;2023-03-01T14:32:31;23.45;;;11.98;;
48363;SDS011;34170;54.364;18.582;2023-03-01T14:35:00;23.13;;;10.88;;
48363;SDS011;34170;54.364;18.582;2023-03-01T14:37:31;26.45;;;11.68;;
48363;SDS011;34170;54.364;18.582;2023-03-01T14:40:01;23.38;;;11.73;;
48363;SDS011;34170;54.364;18.582;2023-03-01T14:42:33;21.73;;;11.40;;
48363;SDS011;34170;54.364;18.582;2023-03-01T14:45:03;19.27;;;11.07;;
48363;SDS011;34170;54.364;18.582;2023-03-01T14:47:34;48.90;;;29.05;;
48363;SDS011;34170;54.364;18.582;2023-03-01T14:55:16;23.33;;;11.80;;
48363;SDS011;34170;54.364;18.582;2023-03-01T14:57:49;26.83;;;12.18;;
48363;SDS011;34170;54.364;18.582;2023-03-01T15:02:46;21.30;;;10.65;;
48363;SDS011;34170;54.364;18.582;2023-03-01T15:05:25;21.83;;;11.15;;
48363;SDS011;34170;54.364;18.582;2023-03-01T15:07:59;19.45;;;10.70;;
48363;SDS011;34170;54.364;18.582;2023-03-01T15:10:32;24.20;;;12.27;;
48363;SDS011;34170;54.364;18.582;2023-03-01T15:13:12;24.58;;;11.82;;
48363;SDS011;34170;54.364;18.582;2023-03-01T15:15:42;26.50;;;12.10;;
48363;SDS011;34170;54.364;18.582;2023-03-01T15:18:16;23.42;;;12.02;;
48363;SDS011;34170;54.364;18.582;2023-03-01T15:20:49;26.95;;;12.32;;
48363;SDS011;34170;54.364;18.582;2023-03-01T15:23:22;24.58;;;12.43;;
48363;SDS011;34170;54.364;18.582;2023-03-01T15:25:53;26.00;;;12.60;;
48363;SDS011;34170;54.364;18.582;2023-03-01T15:28:25;22.65;;;11.20;;
48363;SDS011;34170;54.364;18.582;2023-03-01T15:31:02;21.65;;;11.60;;
48363;SDS011;34170;54.364;18.582;2023-03-01T15:33:46;20.35;;;10.95;;
48363;SDS011;34170;54.364;18.582;2023-03-01T15:39:01;24.92;;;11.75;;
48363;SDS011;34170;54.364;18.582;2023-03-01T15:43:59;26.70;;;11.43;;
48363;SDS011;34170;54.364;18.582;2023-03-01T15:46:34;21.85;;;11.65;;
48363;SDS011;34170;54.364;18.582;2023-03-01T15:49:05;21.70;;;10.60;;
48363;SDS011;34170;54.364;18.582;2023-03-01T15:51:59;21.52;;;11.48;;
48363;SDS011;34170;54.364;18.582;2023-03-01T15:54:26;24.40;;;11.82;;
48363;SDS011;34170;54.364;18.582;2023-03-01T15:56:55;22.15;;;10.65;;
48363;SDS011;34170;54.364;18.582;2023-03-01T15:59:22;24.92;;;11.90;;
48363;SDS011;34170;54.364;18.582;2023-03-01T16:01:50;23.00;;;12.10;;
48363;SDS011;34170;54.364;18.582;2023-03-01T16:04:18;23.10;;;11.70;;
48363;SDS011;34170;54.364;18.582;2023-03-01T16:06:50;25.73;;;12.32;;
48363;SDS011;34170;54.364;18.582;2023-03-01T16:09:23;24.88;;;11.85;;
48363;SDS011;34170;54.364;18.582;2023-03-01T16:11:52;25.58;;;12.07;;
48363;SDS011;34170;54.364;18.582;2023-03-01T16:14:20;23.83;;;11.73;;
48363;SDS011;34170;54.364;18.582;2023-03-01T16:16:49;19.95;;;11.43;;
48363;SDS011;34170;54.364;18.582;2023-03-01T16:19:16;21.05;;;10.90;;
48363;SDS011;34170;54.364;18.582;2023-03-01T16:21:43;21.92;;;11.73;;
48363;SDS011;34170;54.364;18.582;2023-03-01T16:24:14;21.38;;;11.65;;
48363;SDS011;34170;54.364;18.582;2023-03-01T16:26:41;21.63;;;11.07;;
48363;SDS011;34170;54.364;18.582;2023-03-01T16:29:09;22.20;;;11.73;;
48363;SDS011;34170;54.364;18.582;2023-03-01T16:31:36;24.25;;;11.55;;
48363;SDS011;34170;54.364;18.582;2023-03-01T16:34:04;19.80;;;10.32;;
48363;SDS011;34170;54.364;18.582;2023-03-01T16:36:31;23.40;;;11.75;;
48363;SDS011;34170;54.364;18.582;2023-03-01T16:38:59;22.08;;;11.95;;
48363;SDS011;34170;54.364;18.582;2023-03-01T16:41:27;22.70;;;12.10;;
48363;SDS011;34170;54.364;18.582;2023-03-01T16:43:55;22.73;;;11.95;;
48363;SDS011;34170;54.364;18.582;2023-03-01T16:46:26;22.33;;;11.55;;
48363;SDS011;34170;54.364;18.582;2023-03-01T16:51:23;23.88;;;11.35;;
48363;SDS011;34170;54.364;18.582;2023-03-01T16:53:51;25.85;;;11.00;;
48363;SDS011;34170;54.364;18.582;2023-03-01T16:56:19;19.52;;;10.88;;
48363;SDS011;34170;54.364;18.582;2023-03-01T16:58:46;23.52;;;11.77;;
48363;SDS011;34170;54.364;18.582;2023-03-01T17:01:15;25.08;;;11.52;;
48363;SDS011;34170;54.364;18.582;2023-03-01T17:03:44;21.48;;;10.85;;
48363;SDS011;34170;54.364;18.582;2023-03-01T17:06:17;19.33;;;11.02;;
48363;SDS011;34170;54.364;18.582;2023-03-01T17:08:47;21.25;;;10.07;;
48363;SDS011;34170;54.364;18.582;2023-03-01T17:11:15;17.77;;;8.85;;
48363;SDS011;34170;54.364;18.582;2023-03-01T17:13:45;19.92;;;8.80;;